N717SM EINN-KLGA
Flight info
| Callsign | N717SM |
|---|---|
| Flight time | N/A |
| Altitude | 40000 |
| Route | UNBEG3A UNBEG DCT LUPOR DCT LONDU DCT RILED DCT TOBOR/M086F390 NATD IBERG/N0495F430 DCT ALLEX Q822 ENE DCT BAF NOBBI5 |
| Aircraft | C750/M-SBDE3FGHRWXY/S |
Departure
| Time | N/A |
|---|---|
| Airport | Shannon Airport (EINN) |
Arrival
| Time | 2026-04-30 21:31 |
|---|---|
| Airport | LaGuardia Airport (KLGA) |
| Time | Latitude | Longitude | Altitude | Speed | Heading |
|---|---|---|---|---|---|
| 2026-04-30 17:39 | 51.05609 | -35.54934 | 43441 ft | 532 kts | 261° |
| 2026-04-30 17:42 | 50.99616 | -36.10883 | 43444 ft | 532 kts | 260° |
| 2026-04-30 17:43 | 50.96412 | -36.39762 | 43445 ft | 532 kts | 260° |
| 2026-04-30 17:44 | 50.92471 | -36.74378 | 43443 ft | 532 kts | 259° |
| 2026-04-30 17:47 | 50.86370 | -37.26179 | 43448 ft | 532 kts | 259° |
| 2026-04-30 17:48 | 50.81467 | -37.66373 | 43443 ft | 532 kts | 259° |
| 2026-04-30 17:50 | 50.75703 | -38.12136 | 43437 ft | 532 kts | 258° |
| 2026-04-30 17:52 | 50.71254 | -38.46451 | 43434 ft | 532 kts | 258° |
| 2026-04-30 17:54 | 50.64394 | -38.97794 | 43433 ft | 532 kts | 257° |
| 2026-04-30 17:56 | 50.58102 | -39.43336 | 43444 ft | 532 kts | 257° |
| 2026-04-30 17:58 | 50.53279 | -39.77328 | 43444 ft | 532 kts | 257° |
| 2026-04-30 18:00 | 50.48704 | -40.23139 | 43441 ft | 532 kts | 264° |
| 2026-04-30 18:01 | 50.46988 | -40.52071 | 43443 ft | 532 kts | 264° |
| 2026-04-30 18:02 | 50.44859 | -40.86757 | 43446 ft | 532 kts | 264° |
| 2026-04-30 18:04 | 50.42623 | -41.21393 | 43439 ft | 532 kts | 264° |
| 2026-04-30 18:06 | 50.39480 | -41.67538 | 43440 ft | 532 kts | 263° |
| 2026-04-30 18:08 | 50.36582 | -42.07838 | 43447 ft | 532 kts | 263° |
| 2026-04-30 18:10 | 50.33106 | -42.53753 | 43444 ft | 532 kts | 263° |
| 2026-04-30 18:11 | 50.29911 | -42.93940 | 43446 ft | 532 kts | 262° |
| 2026-04-30 18:13 | 50.27544 | -43.22621 | 43446 ft | 532 kts | 262° |
| 2026-04-30 18:14 | 50.25107 | -43.51259 | 43452 ft | 532 kts | 262° |
| 2026-04-30 18:15 | 50.22089 | -43.85601 | 43439 ft | 532 kts | 262° |
| 2026-04-30 18:16 | 50.20020 | -44.08473 | 43447 ft | 532 kts | 262° |
| 2026-04-30 18:17 | 50.18969 | -44.19899 | 43444 ft | 532 kts | 261° |
| 2026-04-30 18:18 | 50.17372 | -44.37029 | 43452 ft | 532 kts | 261° |
| 2026-04-30 18:18 | 50.16300 | -44.48368 | 43452 ft | 532 kts | 261° |
| 2026-04-30 18:19 | 50.15210 | -44.59774 | 43447 ft | 532 kts | 261° |
| 2026-04-30 18:19 | 50.14108 | -44.71185 | 43448 ft | 532 kts | 261° |
| 2026-04-30 18:20 | 50.12996 | -44.82582 | 43455 ft | 532 kts | 261° |
| 2026-04-30 18:20 | 50.11872 | -44.93982 | 43452 ft | 532 kts | 261° |
| 2026-04-30 18:21 | 50.10737 | -45.05368 | 43457 ft | 532 kts | 261° |
| 2026-04-30 18:21 | 50.09592 | -45.16747 | 43452 ft | 532 kts | 261° |
| 2026-04-30 18:22 | 50.08434 | -45.28129 | 43453 ft | 532 kts | 261° |
| 2026-04-30 18:22 | 50.06678 | -45.45181 | 43451 ft | 532 kts | 261° |
| 2026-04-30 18:23 | 50.05494 | -45.56540 | 43449 ft | 532 kts | 261° |
| 2026-04-30 18:23 | 50.04311 | -45.67775 | 43452 ft | 532 kts | 260° |
| 2026-04-30 18:24 | 50.02495 | -45.84814 | 43444 ft | 532 kts | 260° |
| 2026-04-30 18:25 | 50.01273 | -45.96146 | 43444 ft | 532 kts | 260° |
| 2026-04-30 18:25 | 49.99419 | -46.13136 | 43442 ft | 531 kts | 260° |
| 2026-04-30 18:26 | 49.97540 | -46.30116 | 43441 ft | 531 kts | 260° |
| 2026-04-30 18:27 | 49.95645 | -46.46996 | 43441 ft | 531 kts | 259° |
| 2026-04-30 18:28 | 49.93718 | -46.63935 | 43445 ft | 531 kts | 259° |
| 2026-04-30 18:28 | 49.91764 | -46.80880 | 43448 ft | 531 kts | 259° |
| 2026-04-30 18:29 | 49.89123 | -47.03430 | 43445 ft | 531 kts | 259° |
| 2026-04-30 18:30 | 49.86668 | -47.24042 | 43447 ft | 531 kts | 259° |
| 2026-04-30 18:31 | 49.84630 | -47.40909 | 43448 ft | 531 kts | 259° |
| 2026-04-30 18:32 | 49.82568 | -47.57755 | 43445 ft | 531 kts | 259° |
| 2026-04-30 18:33 | 49.80483 | -47.74581 | 43443 ft | 530 kts | 258° |
| 2026-04-30 18:33 | 49.78374 | -47.91388 | 43447 ft | 530 kts | 258° |
| 2026-04-30 18:34 | 49.76242 | -48.08170 | 43446 ft | 530 kts | 258° |
| 2026-04-30 18:35 | 49.74818 | -48.19262 | 43446 ft | 529 kts | 258° |
| 2026-04-30 18:35 | 49.73376 | -48.30413 | 43445 ft | 529 kts | 258° |
| 2026-04-30 18:36 | 49.71191 | -48.47132 | 43438 ft | 529 kts | 258° |
| 2026-04-30 18:37 | 49.68985 | -48.63814 | 43438 ft | 528 kts | 258° |
| 2026-04-30 18:37 | 49.67502 | -48.74917 | 43435 ft | 528 kts | 258° |
| 2026-04-30 18:38 | 49.66010 | -48.86011 | 43435 ft | 528 kts | 257° |
| 2026-04-30 18:38 | 49.64508 | -48.97086 | 43437 ft | 527 kts | 257° |
| 2026-04-30 18:39 | 49.62996 | -49.08148 | 43432 ft | 526 kts | 257° |
| 2026-04-30 18:39 | 49.61478 | -49.19178 | 43429 ft | 526 kts | 257° |
| 2026-04-30 18:40 | 49.59949 | -49.30196 | 43428 ft | 525 kts | 257° |
| 2026-04-30 18:40 | 49.58413 | -49.41192 | 43429 ft | 525 kts | 257° |
| 2026-04-30 18:41 | 49.56867 | -49.52174 | 43435 ft | 524 kts | 257° |
| 2026-04-30 18:41 | 49.55310 | -49.63151 | 43429 ft | 524 kts | 257° |
| 2026-04-30 18:42 | 49.53745 | -49.74107 | 43431 ft | 524 kts | 257° |
| 2026-04-30 18:42 | 49.51380 | -49.90510 | 43421 ft | 523 kts | 257° |
| 2026-04-30 18:45 | 49.38156 | -50.49046 | 43423 ft | 522 kts | 249° |
| 2026-04-30 18:46 | 49.35589 | -50.59467 | 43416 ft | 522 kts | 249° |
| 2026-04-30 18:46 | 49.33044 | -50.69898 | 43412 ft | 522 kts | 249° |
| 2026-04-30 18:47 | 49.30456 | -50.80301 | 43401 ft | 522 kts | 249° |
| 2026-04-30 18:47 | 49.27884 | -50.90694 | 43398 ft | 522 kts | 249° |
| 2026-04-30 18:48 | 49.25290 | -51.01073 | 43398 ft | 522 kts | 249° |
| 2026-04-30 18:48 | 49.22690 | -51.11447 | 43401 ft | 522 kts | 249° |
| 2026-04-30 18:49 | 49.20082 | -51.21805 | 43399 ft | 522 kts | 248° |
| 2026-04-30 18:49 | 49.17465 | -51.32148 | 43401 ft | 522 kts | 248° |
| 2026-04-30 18:50 | 49.14840 | -51.42479 | 43393 ft | 522 kts | 248° |
| 2026-04-30 18:50 | 49.12202 | -51.52808 | 43391 ft | 522 kts | 248° |
| 2026-04-30 18:51 | 49.09557 | -51.63124 | 43391 ft | 522 kts | 248° |
| 2026-04-30 18:51 | 49.06903 | -51.73425 | 43398 ft | 522 kts | 248° |
| 2026-04-30 18:52 | 49.04242 | -51.83707 | 43392 ft | 521 kts | 248° |
| 2026-04-30 18:52 | 49.01588 | -51.93914 | 43391 ft | 522 kts | 248° |
| 2026-04-30 18:53 | 48.99082 | -52.04279 | 43384 ft | 521 kts | 251° |
| 2026-04-30 18:53 | 48.96763 | -52.14740 | 43389 ft | 521 kts | 251° |
| 2026-04-30 18:54 | 48.94464 | -52.25208 | 43384 ft | 521 kts | 251° |
| 2026-04-30 18:54 | 48.92148 | -52.35648 | 43383 ft | 522 kts | 251° |
| 2026-04-30 18:55 | 48.89818 | -52.46103 | 43378 ft | 522 kts | 251° |
| 2026-04-30 18:55 | 48.86310 | -52.61751 | 43377 ft | 522 kts | 251° |
| 2026-04-30 18:56 | 48.82786 | -52.77373 | 43374 ft | 521 kts | 251° |
| 2026-04-30 18:57 | 48.79238 | -52.92968 | 43373 ft | 521 kts | 250° |
| 2026-04-30 18:57 | 48.76862 | -53.03349 | 43365 ft | 521 kts | 250° |
| 2026-04-30 18:58 | 48.73281 | -53.18903 | 43367 ft | 521 kts | 250° |
| 2026-04-30 18:59 | 48.69680 | -53.34429 | 43360 ft | 521 kts | 250° |
| 2026-04-30 19:00 | 48.64860 | -53.55042 | 43345 ft | 521 kts | 250° |
| 2026-04-30 19:01 | 48.59985 | -53.75687 | 43337 ft | 521 kts | 250° |
| 2026-04-30 19:02 | 48.56704 | -53.89475 | 43338 ft | 521 kts | 250° |
| 2026-04-30 19:03 | 48.51772 | -54.10035 | 43322 ft | 520 kts | 250° |
| 2026-04-30 19:04 | 48.46825 | -54.30473 | 43320 ft | 520 kts | 249° |
| 2026-04-30 19:05 | 48.41833 | -54.50903 | 43300 ft | 519 kts | 249° |
| 2026-04-30 19:06 | 48.36812 | -54.71262 | 43293 ft | 518 kts | 249° |
| 2026-04-30 19:06 | 48.33030 | -54.86476 | 43283 ft | 518 kts | 249° |
| 2026-04-30 19:07 | 48.29229 | -55.01665 | 43262 ft | 517 kts | 249° |
| 2026-04-30 19:08 | 48.24140 | -55.21842 | 43257 ft | 516 kts | 248° |
| 2026-04-30 19:09 | 48.20304 | -55.36931 | 43262 ft | 516 kts | 248° |
| 2026-04-30 19:09 | 48.17737 | -55.46975 | 43261 ft | 516 kts | 248° |
| 2026-04-30 19:10 | 48.12571 | -55.67051 | 43255 ft | 516 kts | 248° |
| 2026-04-30 19:11 | 48.08678 | -55.82068 | 43250 ft | 516 kts | 248° |
| 2026-04-30 19:12 | 48.06070 | -55.92070 | 43252 ft | 516 kts | 248° |
| 2026-04-30 19:12 | 48.03454 | -56.02062 | 43256 ft | 517 kts | 248° |
| 2026-04-30 19:13 | 47.98214 | -56.21948 | 43249 ft | 516 kts | 248° |
| 2026-04-30 19:14 | 47.95575 | -56.31897 | 43249 ft | 516 kts | 247° |
| 2026-04-30 19:14 | 47.92928 | -56.41835 | 43254 ft | 515 kts | 247° |
| 2026-04-30 19:15 | 47.90275 | -56.51756 | 43256 ft | 515 kts | 247° |
| 2026-04-30 19:15 | 47.86284 | -56.66597 | 43263 ft | 514 kts | 247° |
| 2026-04-30 19:16 | 47.83617 | -56.76460 | 43273 ft | 514 kts | 247° |
| 2026-04-30 19:17 | 47.79595 | -56.91264 | 43280 ft | 514 kts | 247° |
| 2026-04-30 19:17 | 47.75556 | -57.06031 | 43282 ft | 514 kts | 246° |
| 2026-04-30 19:18 | 47.71501 | -57.20768 | 43285 ft | 514 kts | 246° |
| 2026-04-30 19:19 | 47.68787 | -57.30580 | 43294 ft | 514 kts | 246° |
| 2026-04-30 19:19 | 47.64703 | -57.45270 | 43292 ft | 513 kts | 246° |
| 2026-04-30 19:20 | 47.61971 | -57.55050 | 43287 ft | 513 kts | 246° |
| 2026-04-30 19:21 | 47.57860 | -57.69684 | 43284 ft | 513 kts | 246° |
| 2026-04-30 19:22 | 47.52368 | -57.89100 | 43284 ft | 513 kts | 246° |
| 2026-04-30 19:23 | 47.44028 | -58.18291 | 43270 ft | 513 kts | 246° |
| 2026-04-30 19:24 | 47.39859 | -58.32751 | 43270 ft | 513 kts | 246° |
| 2026-04-30 19:25 | 47.32842 | -58.56895 | 43245 ft | 512 kts | 245° |
| 2026-04-30 19:26 | 47.27195 | -58.76156 | 43255 ft | 512 kts | 245° |
| 2026-04-30 19:27 | 47.22942 | -58.90566 | 43236 ft | 512 kts | 245° |
| 2026-04-30 19:28 | 47.18670 | -59.04951 | 43235 ft | 512 kts | 245° |
| 2026-04-30 19:29 | 47.12945 | -59.24101 | 43234 ft | 512 kts | 245° |
| 2026-04-30 19:30 | 47.07184 | -59.43224 | 43231 ft | 512 kts | 245° |
| 2026-04-30 19:31 | 47.01388 | -59.62317 | 43218 ft | 513 kts | 245° |
| 2026-04-30 19:31 | 46.97016 | -59.76620 | 43216 ft | 513 kts | 245° |
| 2026-04-30 19:32 | 46.94089 | -59.86153 | 43207 ft | 513 kts | 245° |
| 2026-04-30 19:32 | 46.91174 | -59.95610 | 43210 ft | 514 kts | 245° |
| 2026-04-30 19:33 | 46.88230 | -60.05127 | 43205 ft | 513 kts | 245° |
| 2026-04-30 19:33 | 46.85280 | -60.14624 | 43217 ft | 513 kts | 245° |
| 2026-04-30 19:34 | 46.82324 | -60.24105 | 43218 ft | 513 kts | 245° |
| 2026-04-30 19:35 | 46.77875 | -60.38312 | 43213 ft | 513 kts | 245° |
| 2026-04-30 19:35 | 46.74899 | -60.47771 | 43213 ft | 513 kts | 244° |
| 2026-04-30 19:36 | 46.71917 | -60.57213 | 43201 ft | 512 kts | 244° |
| 2026-04-30 19:36 | 46.67443 | -60.71312 | 43167 ft | 510 kts | 244° |
| 2026-04-30 19:37 | 46.64461 | -60.80667 | 43148 ft | 509 kts | 244° |
| 2026-04-30 19:37 | 46.61473 | -60.90007 | 43129 ft | 509 kts | 244° |
| 2026-04-30 19:38 | 46.58481 | -60.99325 | 43111 ft | 509 kts | 244° |
| 2026-04-30 19:38 | 46.55474 | -61.08656 | 43106 ft | 511 kts | 244° |
| 2026-04-30 19:39 | 46.52443 | -61.18026 | 43103 ft | 512 kts | 244° |
| 2026-04-30 19:39 | 46.49407 | -61.27381 | 43102 ft | 513 kts | 244° |
| 2026-04-30 19:40 | 46.46359 | -61.36736 | 43100 ft | 512 kts | 244° |
| 2026-04-30 19:40 | 46.43307 | -61.46069 | 43102 ft | 512 kts | 244° |
| 2026-04-30 19:41 | 46.40250 | -61.55387 | 43106 ft | 512 kts | 244° |
| 2026-04-30 19:41 | 46.37184 | -61.64695 | 43111 ft | 512 kts | 244° |
| 2026-04-30 19:42 | 46.34111 | -61.73993 | 43112 ft | 511 kts | 244° |
| 2026-04-30 19:42 | 46.31031 | -61.83280 | 43115 ft | 512 kts | 244° |
| 2026-04-30 19:43 | 46.27946 | -61.92547 | 43118 ft | 512 kts | 244° |
| 2026-04-30 19:44 | 46.23325 | -62.06367 | 43114 ft | 511 kts | 244° |
| 2026-04-30 19:44 | 46.20225 | -62.15599 | 43115 ft | 511 kts | 243° |
| 2026-04-30 19:45 | 46.17120 | -62.24813 | 43108 ft | 511 kts | 243° |
| 2026-04-30 19:45 | 46.14008 | -62.34014 | 43107 ft | 510 kts | 243° |
| 2026-04-30 19:46 | 46.10893 | -62.43193 | 43103 ft | 510 kts | 243° |
| 2026-04-30 19:46 | 46.07771 | -62.52360 | 43103 ft | 510 kts | 243° |
| 2026-04-30 19:47 | 46.04640 | -62.61521 | 43095 ft | 510 kts | 243° |
| 2026-04-30 19:47 | 46.01502 | -62.70670 | 43086 ft | 510 kts | 243° |
| 2026-04-30 19:48 | 45.98356 | -62.79815 | 43076 ft | 510 kts | 243° |
| 2026-04-30 19:48 | 45.95735 | -62.87404 | 43069 ft | 510 kts | 243° |
| 2026-04-30 19:49 | 45.92573 | -62.96537 | 43065 ft | 511 kts | 243° |
| 2026-04-30 19:49 | 45.87808 | -63.10236 | 43055 ft | 511 kts | 243° |
| 2026-04-30 19:50 | 45.84621 | -63.19360 | 43052 ft | 512 kts | 243° |
| 2026-04-30 19:50 | 45.81427 | -63.28475 | 43055 ft | 511 kts | 243° |
| 2026-04-30 19:51 | 45.78226 | -63.37577 | 43044 ft | 511 kts | 243° |
| 2026-04-30 19:51 | 45.75019 | -63.46665 | 43040 ft | 511 kts | 243° |
| 2026-04-30 19:52 | 45.71811 | -63.55724 | 43036 ft | 510 kts | 243° |
| 2026-04-30 19:52 | 45.68600 | -63.64762 | 43035 ft | 509 kts | 243° |
| 2026-04-30 19:53 | 45.65389 | -63.73770 | 43021 ft | 508 kts | 243° |
| 2026-04-30 19:53 | 45.62175 | -63.82756 | 43023 ft | 507 kts | 243° |
| 2026-04-30 19:54 | 45.58962 | -63.91710 | 43024 ft | 506 kts | 243° |
| 2026-04-30 19:54 | 45.55745 | -64.00644 | 43009 ft | 505 kts | 243° |
| 2026-04-30 19:55 | 45.52529 | -64.09547 | 43009 ft | 505 kts | 242° |
| 2026-04-30 19:55 | 45.49310 | -64.18428 | 43004 ft | 504 kts | 242° |
| 2026-04-30 19:56 | 45.46087 | -64.27292 | 43007 ft | 504 kts | 242° |
| 2026-04-30 19:56 | 45.42858 | -64.36141 | 43010 ft | 503 kts | 242° |
| 2026-04-30 19:57 | 45.39649 | -64.44909 | 42999 ft | 503 kts | 242° |
| 2026-04-30 19:57 | 45.36413 | -64.53724 | 42999 ft | 503 kts | 242° |
| 2026-04-30 19:58 | 45.33172 | -64.62521 | 42997 ft | 502 kts | 242° |
| 2026-04-30 19:58 | 45.29923 | -64.71313 | 42998 ft | 502 kts | 242° |
| 2026-04-30 19:59 | 45.26671 | -64.80083 | 42989 ft | 502 kts | 242° |
| 2026-04-30 20:00 | 45.21779 | -64.93226 | 42996 ft | 502 kts | 242° |
| 2026-04-30 20:00 | 45.18507 | -65.01980 | 42991 ft | 502 kts | 242° |
| 2026-04-30 20:01 | 45.13588 | -65.15090 | 42992 ft | 502 kts | 241° |
| 2026-04-30 20:01 | 45.10302 | -65.23813 | 42990 ft | 502 kts | 241° |
| 2026-04-30 20:02 | 45.05358 | -65.36884 | 42977 ft | 502 kts | 241° |
| 2026-04-30 20:03 | 45.00399 | -65.49934 | 42968 ft | 502 kts | 241° |
| 2026-04-30 20:03 | 44.97088 | -65.58612 | 42960 ft | 502 kts | 241° |
| 2026-04-30 20:04 | 44.93770 | -65.67281 | 42951 ft | 502 kts | 241° |
| 2026-04-30 20:05 | 44.88783 | -65.80261 | 42938 ft | 501 kts | 241° |
| 2026-04-30 20:05 | 44.83785 | -65.93209 | 42941 ft | 501 kts | 241° |
| 2026-04-30 20:06 | 44.80442 | -66.01836 | 42922 ft | 502 kts | 240° |
| 2026-04-30 20:06 | 44.77091 | -66.10457 | 42909 ft | 502 kts | 240° |
| 2026-04-30 20:07 | 44.73757 | -66.19008 | 42909 ft | 502 kts | 240° |
| 2026-04-30 20:08 | 44.68701 | -66.31926 | 42904 ft | 503 kts | 240° |
| 2026-04-30 20:08 | 44.65319 | -66.40532 | 42900 ft | 504 kts | 240° |
| 2026-04-30 20:09 | 44.61926 | -66.49142 | 42892 ft | 504 kts | 240° |
| 2026-04-30 20:09 | 44.56822 | -66.62040 | 42879 ft | 504 kts | 240° |
| 2026-04-30 20:10 | 44.51700 | -66.74928 | 42868 ft | 504 kts | 240° |
| 2026-04-30 20:11 | 44.46564 | -66.87784 | 42856 ft | 504 kts | 240° |
| 2026-04-30 20:11 | 44.43139 | -66.96341 | 42851 ft | 504 kts | 240° |
| 2026-04-30 20:12 | 44.39192 | -67.09923 | 42869 ft | 504 kts | 250° |
| 2026-04-30 20:13 | 44.36844 | -67.19156 | 42861 ft | 504 kts | 250° |
| 2026-04-30 20:13 | 44.34521 | -67.28387 | 42857 ft | 503 kts | 250° |
| 2026-04-30 20:14 | 44.32179 | -67.37587 | 42853 ft | 503 kts | 250° |
| 2026-04-30 20:14 | 44.29838 | -67.46782 | 42846 ft | 502 kts | 250° |
| 2026-04-30 20:15 | 44.27488 | -67.55957 | 42846 ft | 502 kts | 249° |
| 2026-04-30 20:15 | 44.25134 | -67.65121 | 42839 ft | 502 kts | 249° |
| 2026-04-30 20:16 | 44.22773 | -67.74273 | 42835 ft | 502 kts | 249° |
| 2026-04-30 20:16 | 44.20404 | -67.83422 | 42832 ft | 502 kts | 249° |
| 2026-04-30 20:17 | 44.18042 | -67.92506 | 42829 ft | 502 kts | 249° |
| 2026-04-30 20:17 | 44.15661 | -68.01633 | 42828 ft | 501 kts | 249° |
| 2026-04-30 20:18 | 44.13272 | -68.10751 | 42829 ft | 502 kts | 249° |
| 2026-04-30 20:18 | 44.10874 | -68.19871 | 42835 ft | 502 kts | 249° |
| 2026-04-30 20:19 | 44.08471 | -68.28974 | 42833 ft | 501 kts | 249° |
| 2026-04-30 20:19 | 44.06061 | -68.38066 | 42834 ft | 501 kts | 249° |
| 2026-04-30 20:20 | 44.03644 | -68.47154 | 42834 ft | 501 kts | 249° |
| 2026-04-30 20:20 | 44.01222 | -68.56224 | 42834 ft | 500 kts | 249° |
| 2026-04-30 20:21 | 43.98793 | -68.65289 | 42821 ft | 501 kts | 249° |
| 2026-04-30 20:21 | 43.96358 | -68.74337 | 42819 ft | 500 kts | 249° |
| 2026-04-30 20:22 | 43.93918 | -68.83373 | 42823 ft | 500 kts | 249° |
| 2026-04-30 20:22 | 43.91472 | -68.92397 | 42825 ft | 500 kts | 249° |
| 2026-04-30 20:23 | 43.89020 | -69.01410 | 42828 ft | 499 kts | 248° |
| 2026-04-30 20:23 | 43.86562 | -69.10411 | 42822 ft | 499 kts | 248° |
| 2026-04-30 20:24 | 43.84100 | -69.19395 | 42814 ft | 499 kts | 248° |
| 2026-04-30 20:24 | 43.81647 | -69.28311 | 42810 ft | 499 kts | 248° |
| 2026-04-30 20:25 | 43.77929 | -69.41763 | 42807 ft | 499 kts | 248° |
| 2026-04-30 20:26 | 43.74179 | -69.55259 | 42814 ft | 499 kts | 248° |
| 2026-04-30 20:26 | 43.70337 | -69.68642 | 42816 ft | 499 kts | 246° |
| 2026-04-30 20:27 | 43.65109 | -69.86354 | 42812 ft | 499 kts | 247° |
| 2026-04-30 20:28 | 43.59850 | -70.04041 | 42801 ft | 500 kts | 247° |
| 2026-04-30 20:30 | 43.53213 | -70.26192 | 42804 ft | 500 kts | 246° |
| 2026-04-30 20:31 | 43.45188 | -70.52739 | 42808 ft | 501 kts | 246° |
| 2026-04-30 20:32 | 43.40289 | -70.65321 | 42817 ft | 499 kts | 232° |
| 2026-04-30 20:32 | 43.35929 | -70.72756 | 42812 ft | 500 kts | 231° |
| 2026-04-30 20:33 | 43.29419 | -70.83958 | 42795 ft | 500 kts | 231° |
| 2026-04-30 20:34 | 43.22884 | -70.95107 | 42797 ft | 500 kts | 232° |
| 2026-04-30 20:35 | 43.16343 | -71.06234 | 42795 ft | 500 kts | 232° |
| 2026-04-30 20:35 | 43.10534 | -71.16090 | 42801 ft | 499 kts | 231° |
| 2026-04-30 20:36 | 43.06171 | -71.23464 | 42802 ft | 499 kts | 231° |
| 2026-04-30 20:37 | 42.99607 | -71.34529 | 42793 ft | 499 kts | 231° |
| 2026-04-30 20:37 | 42.95233 | -71.41878 | 42791 ft | 499 kts | 231° |
| 2026-04-30 20:38 | 42.90854 | -71.49216 | 42795 ft | 498 kts | 231° |
| 2026-04-30 20:38 | 42.86477 | -71.56534 | 42805 ft | 498 kts | 231° |
| 2026-04-30 20:39 | 42.79906 | -71.67486 | 42805 ft | 497 kts | 231° |
| 2026-04-30 20:40 | 42.73328 | -71.78410 | 42791 ft | 497 kts | 231° |
| 2026-04-30 20:40 | 42.68943 | -71.85667 | 42796 ft | 496 kts | 231° |
| 2026-04-30 20:41 | 42.64784 | -71.92532 | 42697 ft | 444 kts | 231° |
| 2026-04-30 20:41 | 42.62865 | -71.95697 | 42488 ft | 427 kts | 231° |
| 2026-04-30 20:41 | 42.60992 | -71.98786 | 42254 ft | 422 kts | 231° |
| 2026-04-30 20:41 | 42.59128 | -72.01853 | 42038 ft | 421 kts | 231° |
| 2026-04-30 20:42 | 42.57262 | -72.04919 | 41853 ft | 422 kts | 231° |
| 2026-04-30 20:42 | 42.55391 | -72.07990 | 41687 ft | 423 kts | 231° |
| 2026-04-30 20:42 | 42.51639 | -72.14140 | 41363 ft | 423 kts | 231° |
| 2026-04-30 20:43 | 42.49763 | -72.17210 | 41203 ft | 423 kts | 231° |
| 2026-04-30 20:43 | 42.47890 | -72.20273 | 41049 ft | 422 kts | 231° |
| 2026-04-30 20:43 | 42.46035 | -72.23301 | 40417 ft | 414 kts | 231° |
| 2026-04-30 20:44 | 42.42334 | -72.29339 | 38310 ft | 416 kts | 231° |
| 2026-04-30 20:44 | 42.40492 | -72.32338 | 37118 ft | 413 kts | 231° |
| 2026-04-30 20:44 | 42.36838 | -72.38279 | 34794 ft | 418 kts | 230° |
| 2026-04-30 20:45 | 42.33131 | -72.44293 | 33725 ft | 415 kts | 230° |
| 2026-04-30 20:45 | 42.31284 | -72.47284 | 33098 ft | 414 kts | 230° |
| 2026-04-30 20:45 | 42.29437 | -72.50274 | 32483 ft | 415 kts | 230° |
| 2026-04-30 20:46 | 42.23915 | -72.59197 | 27767 ft | 418 kts | 230° |
| 2026-04-30 20:46 | 42.22069 | -72.62171 | 26218 ft | 409 kts | 230° |
| 2026-04-30 20:47 | 42.18589 | -72.67771 | 24902 ft | 371 kts | 230° |
| 2026-04-30 20:47 | 42.16937 | -72.70429 | 24450 ft | 372 kts | 230° |
| 2026-04-30 20:48 | 42.14159 | -72.76306 | 23475 ft | 372 kts | 239° |
| 2026-04-30 20:48 | 42.12853 | -72.79299 | 22922 ft | 369 kts | 238° |
| 2026-04-30 20:48 | 42.11536 | -72.82260 | 22366 ft | 368 kts | 238° |
| 2026-04-30 20:48 | 42.10235 | -72.85218 | 21819 ft | 366 kts | 238° |
| 2026-04-30 20:49 | 42.08954 | -72.88156 | 21279 ft | 363 kts | 238° |
| 2026-04-30 20:49 | 42.07676 | -72.91074 | 20742 ft | 361 kts | 238° |
| 2026-04-30 20:49 | 42.06400 | -72.93966 | 20221 ft | 359 kts | 238° |
| 2026-04-30 20:50 | 42.03869 | -72.99710 | 19216 ft | 355 kts | 238° |
| 2026-04-30 20:50 | 42.02614 | -73.02556 | 18769 ft | 354 kts | 238° |
| 2026-04-30 20:50 | 42.01362 | -73.05392 | 18326 ft | 352 kts | 239° |
| 2026-04-30 20:50 | 42.00114 | -73.08216 | 17859 ft | 351 kts | 239° |
| 2026-04-30 20:51 | 41.98872 | -73.11023 | 17352 ft | 348 kts | 239° |
| 2026-04-30 20:51 | 41.96402 | -73.16600 | 16371 ft | 346 kts | 239° |
| 2026-04-30 20:51 | 41.95174 | -73.19368 | 15873 ft | 344 kts | 239° |
| 2026-04-30 20:52 | 41.93949 | -73.22127 | 15405 ft | 343 kts | 239° |
| 2026-04-30 20:52 | 41.92728 | -73.24874 | 14932 ft | 342 kts | 239° |
| 2026-04-30 20:52 | 41.90297 | -73.30336 | 14005 ft | 339 kts | 239° |
| 2026-04-30 20:53 | 41.89089 | -73.33047 | 13548 ft | 338 kts | 239° |
| 2026-04-30 20:53 | 41.87885 | -73.35747 | 13033 ft | 336 kts | 239° |
| 2026-04-30 20:53 | 41.86685 | -73.38433 | 12523 ft | 334 kts | 239° |
| 2026-04-30 20:54 | 41.84305 | -73.43759 | 11544 ft | 331 kts | 240° |
| 2026-04-30 20:54 | 41.83122 | -73.46401 | 11075 ft | 330 kts | 240° |
| 2026-04-30 20:54 | 41.81980 | -73.48948 | 10610 ft | 307 kts | 240° |
| 2026-04-30 20:55 | 41.79922 | -73.53534 | 9686 ft | 275 kts | 240° |
| 2026-04-30 20:55 | 41.78956 | -73.55688 | 9175 ft | 268 kts | 240° |
| 2026-04-30 20:55 | 41.77992 | -73.57834 | 8682 ft | 267 kts | 241° |
| 2026-04-30 20:56 | 41.75299 | -73.61079 | 7983 ft | 260 kts | 207° |
| 2026-04-30 20:56 | 41.73604 | -73.62074 | 8009 ft | 270 kts | 206° |
| 2026-04-30 20:56 | 41.70148 | -73.64123 | 8011 ft | 273 kts | 207° |
| 2026-04-30 20:57 | 41.68408 | -73.65154 | 8007 ft | 273 kts | 207° |
| 2026-04-30 20:57 | 41.66668 | -73.66181 | 8009 ft | 273 kts | 206° |
| 2026-04-30 20:57 | 41.64930 | -73.67206 | 7987 ft | 273 kts | 207° |
| 2026-04-30 20:58 | 41.61451 | -73.69260 | 7990 ft | 274 kts | 207° |
| 2026-04-30 20:58 | 41.59650 | -73.70075 | 7931 ft | 278 kts | 191° |
| 2026-04-30 20:58 | 41.57717 | -73.69840 | 7965 ft | 282 kts | 169° |
| 2026-04-30 20:58 | 41.55820 | -73.69091 | 8002 ft | 285 kts | 166° |
| 2026-04-30 20:59 | 41.52033 | -73.67560 | 8010 ft | 285 kts | 167° |
| 2026-04-30 20:59 | 41.50136 | -73.66826 | 8013 ft | 284 kts | 167° |
| 2026-04-30 21:00 | 41.46339 | -73.65329 | 8006 ft | 284 kts | 166° |
| 2026-04-30 21:00 | 41.42540 | -73.63836 | 8003 ft | 285 kts | 167° |
| 2026-04-30 21:01 | 41.38754 | -73.62289 | 7996 ft | 284 kts | 166° |
| 2026-04-30 21:01 | 41.36863 | -73.61509 | 7998 ft | 285 kts | 166° |
| 2026-04-30 21:01 | 41.33076 | -73.59969 | 7989 ft | 285 kts | 166° |
| 2026-04-30 21:02 | 41.31185 | -73.59193 | 7996 ft | 285 kts | 166° |
| 2026-04-30 21:02 | 41.29290 | -73.58419 | 7998 ft | 284 kts | 166° |
| 2026-04-30 21:02 | 41.27428 | -73.57520 | 7994 ft | 286 kts | 160° |
| 2026-04-30 21:02 | 41.25587 | -73.56507 | 8006 ft | 285 kts | 161° |
| 2026-04-30 21:03 | 41.23736 | -73.55533 | 8007 ft | 286 kts | 161° |
| 2026-04-30 21:03 | 41.21891 | -73.54545 | 7977 ft | 283 kts | 161° |
| 2026-04-30 21:03 | 41.20054 | -73.53753 | 7081 ft | 279 kts | 174° |
| 2026-04-30 21:03 | 41.18149 | -73.54072 | 6271 ft | 274 kts | 201° |
| 2026-04-30 21:04 | 41.16507 | -73.55240 | 5589 ft | 265 kts | 215° |
| 2026-04-30 21:04 | 41.14964 | -73.56571 | 4890 ft | 263 kts | 216° |
| 2026-04-30 21:04 | 41.11890 | -73.59180 | 3502 ft | 261 kts | 217° |
| 2026-04-30 21:05 | 41.10408 | -73.60599 | 2989 ft | 259 kts | 218° |
| 2026-04-30 21:05 | 41.08948 | -73.61910 | 3089 ft | 257 kts | 216° |
| 2026-04-30 21:05 | 41.07430 | -73.63176 | 3233 ft | 253 kts | 214° |
| 2026-04-30 21:05 | 41.06042 | -73.64302 | 3400 ft | 219 kts | 214° |
| 2026-04-30 21:06 | 41.04755 | -73.65364 | 3502 ft | 219 kts | 215° |
| 2026-04-30 21:06 | 41.03454 | -73.66443 | 3453 ft | 224 kts | 215° |
| 2026-04-30 21:06 | 41.02206 | -73.67479 | 3191 ft | 224 kts | 215° |
| 2026-04-30 21:06 | 41.00894 | -73.68567 | 2977 ft | 219 kts | 214° |
| 2026-04-30 21:07 | 40.99625 | -73.69615 | 2980 ft | 214 kts | 214° |
| 2026-04-30 21:07 | 40.98350 | -73.70669 | 2993 ft | 218 kts | 215° |
| 2026-04-30 21:07 | 40.97053 | -73.71743 | 2992 ft | 221 kts | 214° |
| 2026-04-30 21:07 | 40.95753 | -73.72819 | 2981 ft | 219 kts | 214° |
| 2026-04-30 21:08 | 40.94470 | -73.73879 | 2984 ft | 219 kts | 214° |
| 2026-04-30 21:08 | 40.93176 | -73.74948 | 2991 ft | 219 kts | 214° |
| 2026-04-30 21:08 | 40.91881 | -73.76020 | 2991 ft | 219 kts | 215° |
| 2026-04-30 21:08 | 40.90575 | -73.77101 | 2827 ft | 224 kts | 214° |
| 2026-04-30 21:09 | 40.89288 | -73.78169 | 2528 ft | 205 kts | 215° |
| 2026-04-30 21:09 | 40.88187 | -73.79079 | 2248 ft | 173 kts | 214° |
| 2026-04-30 21:09 | 40.87200 | -73.79907 | 2029 ft | 169 kts | 216° |
| 2026-04-30 21:09 | 40.86190 | -73.80745 | 1807 ft | 173 kts | 215° |
| 2026-04-30 21:10 | 40.85250 | -73.81517 | 1594 ft | 149 kts | 215° |
| 2026-04-30 21:10 | 40.84420 | -73.82208 | 1386 ft | 136 kts | 215° |
| 2026-04-30 21:10 | 40.83636 | -73.82856 | 1210 ft | 132 kts | 215° |
| 2026-04-30 21:10 | 40.82860 | -73.83497 | 1042 ft | 131 kts | 215° |
| 2026-04-30 21:11 | 40.82089 | -73.84133 | 851 ft | 130 kts | 215° |
| 2026-04-30 21:11 | 40.81327 | -73.84767 | 687 ft | 128 kts | 216° |
| 2026-04-30 21:11 | 40.80567 | -73.85396 | 522 ft | 129 kts | 216° |
| 2026-04-30 21:11 | 40.79797 | -73.86030 | 354 ft | 131 kts | 215° |
| 2026-04-30 21:12 | 40.79026 | -73.86671 | 175 ft | 133 kts | 217° |
| 2026-04-30 21:12 | 40.78219 | -73.87349 | 333 ft | 147 kts | 217° |
| 2026-04-30 21:12 | 40.77373 | -73.88076 | 745 ft | 145 kts | 216° |
| 2026-04-30 21:12 | 40.76512 | -73.88836 | 1554 ft | 145 kts | 216° |
| 2026-04-30 21:13 | 40.75676 | -73.89584 | 2368 ft | 147 kts | 217° |
| 2026-04-30 21:13 | 40.74732 | -73.90259 | 2936 ft | 166 kts | 210° |
| 2026-04-30 21:13 | 40.73622 | -73.91020 | 3278 ft | 195 kts | 211° |
| 2026-04-30 21:13 | 40.72391 | -73.92031 | 3417 ft | 228 kts | 220° |
| 2026-04-30 21:14 | 40.71295 | -73.93678 | 3720 ft | 249 kts | 232° |
| 2026-04-30 21:14 | 40.70015 | -73.95414 | 3705 ft | 285 kts | 227° |
| 2026-04-30 21:14 | 40.68627 | -73.97155 | 3916 ft | 266 kts | 223° |
| 2026-04-30 21:14 | 40.67141 | -73.98577 | 3809 ft | 261 kts | 216° |
| 2026-04-30 21:15 | 40.65692 | -73.99977 | 3622 ft | 258 kts | 227° |
| 2026-04-30 21:15 | 40.64922 | -74.02064 | 3336 ft | 256 kts | 261° |
| 2026-04-30 21:15 | 40.64952 | -74.04379 | 3186 ft | 252 kts | 276° |
| 2026-04-30 21:15 | 40.65143 | -74.06653 | 3106 ft | 250 kts | 277° |
| 2026-04-30 21:16 | 40.65340 | -74.08930 | 3026 ft | 251 kts | 277° |
| 2026-04-30 21:16 | 40.65537 | -74.11213 | 3019 ft | 251 kts | 277° |
| 2026-04-30 21:16 | 40.65734 | -74.13505 | 3021 ft | 251 kts | 278° |
| 2026-04-30 21:16 | 40.66362 | -74.15602 | 2929 ft | 249 kts | 308° |
| 2026-04-30 21:17 | 40.67806 | -74.16774 | 2889 ft | 250 kts | 344° |
| 2026-04-30 21:17 | 40.69519 | -74.16556 | 2894 ft | 253 kts | 18° |
| 2026-04-30 21:17 | 40.71093 | -74.15472 | 3039 ft | 259 kts | 28° |
| 2026-04-30 21:17 | 40.72453 | -74.13890 | 3026 ft | 261 kts | 45° |
| 2026-04-30 21:18 | 40.73643 | -74.12065 | 3030 ft | 263 kts | 47° |
| 2026-04-30 21:18 | 40.74818 | -74.10226 | 3020 ft | 261 kts | 47° |
| 2026-04-30 21:18 | 40.75983 | -74.08395 | 3026 ft | 260 kts | 47° |
| 2026-04-30 21:18 | 40.77151 | -74.06556 | 3010 ft | 262 kts | 47° |
| 2026-04-30 21:19 | 40.78325 | -74.04721 | 3011 ft | 262 kts | 47° |
| 2026-04-30 21:19 | 40.79504 | -74.02880 | 3001 ft | 261 kts | 47° |
| 2026-04-30 21:19 | 40.80678 | -74.01050 | 3001 ft | 262 kts | 47° |
| 2026-04-30 21:19 | 40.81852 | -73.99217 | 3002 ft | 261 kts | 47° |
| 2026-04-30 21:20 | 40.83027 | -73.97383 | 2994 ft | 261 kts | 47° |
| 2026-04-30 21:20 | 40.83909 | -73.96321 | 2971 ft | 258 kts | 35° |
| 2026-04-30 21:20 | 40.85428 | -73.95069 | 3000 ft | 258 kts | 28° |
| 2026-04-30 21:20 | 40.86987 | -73.93893 | 3007 ft | 258 kts | 27° |
| 2026-04-30 21:21 | 40.88553 | -73.92715 | 3009 ft | 259 kts | 27° |
| 2026-04-30 21:21 | 40.90117 | -73.91539 | 3010 ft | 258 kts | 27° |
| 2026-04-30 21:21 | 40.93222 | -73.89193 | 2998 ft | 257 kts | 27° |
| 2026-04-30 21:22 | 40.94768 | -73.88011 | 3008 ft | 256 kts | 27° |
| 2026-04-30 21:22 | 40.99119 | -73.84669 | 2980 ft | 205 kts | 27° |
| 2026-04-30 21:23 | 41.00264 | -73.83776 | 2967 ft | 181 kts | 27° |
| 2026-04-30 21:23 | 41.01326 | -73.82945 | 2974 ft | 175 kts | 27° |
| 2026-04-30 21:23 | 41.02904 | -73.80561 | 2775 ft | 193 kts | 85° |
| 2026-04-30 21:24 | 41.02388 | -73.78977 | 2767 ft | 191 kts | 132° |
| 2026-04-30 21:24 | 41.01396 | -73.77800 | 2947 ft | 196 kts | 138° |
| 2026-04-30 21:24 | 41.00404 | -73.76595 | 3036 ft | 189 kts | 137° |
| 2026-04-30 21:24 | 40.99444 | -73.75411 | 3005 ft | 186 kts | 137° |
| 2026-04-30 21:25 | 40.97083 | -73.74665 | 2996 ft | 180 kts | 189° |
| 2026-04-30 21:25 | 40.95869 | -73.75071 | 3000 ft | 179 kts | 202° |
| 2026-04-30 21:25 | 40.94689 | -73.75653 | 2962 ft | 179 kts | 206° |
| 2026-04-30 21:26 | 40.92175 | -73.76225 | 2792 ft | 185 kts | 197° |
| 2026-04-30 21:26 | 40.91033 | -73.76890 | 2821 ft | 171 kts | 212° |
| 2026-04-30 21:27 | 40.89236 | -73.78250 | 2536 ft | 144 kts | 215° |
| 2026-04-30 21:27 | 40.88415 | -73.78923 | 2318 ft | 137 kts | 216° |
| 2026-04-30 21:27 | 40.87618 | -73.79581 | 2137 ft | 134 kts | 216° |
| 2026-04-30 21:28 | 40.86045 | -73.80882 | 1777 ft | 134 kts | 215° |
| 2026-04-30 21:28 | 40.85254 | -73.81535 | 1609 ft | 133 kts | 215° |
| 2026-04-30 21:28 | 40.83688 | -73.82828 | 1234 ft | 135 kts | 214° |
| 2026-04-30 21:29 | 40.82895 | -73.83483 | 1061 ft | 134 kts | 215° |
| 2026-04-30 21:29 | 40.80563 | -73.85407 | 517 ft | 132 kts | 215° |
| 2026-04-30 21:30 | 40.78997 | -73.86697 | 158 ft | 133 kts | 216° |
| 2026-04-30 21:31 | 40.77292 | -73.88117 | 19 ft | 26 kts | 220° |
| 2026-04-30 21:31 | 40.77280 | -73.88262 | 18 ft | 1 kts | 291° |